Time;durP1;ratioP1;P1;durP2;ratioP2;P2;SDS_P1;SDS_P2;PMS_P1;PMS_P2;Temp;Humidity;BMP_temperature;BMP_pressure;BME280_temperature;BME280_humidity;BME280_pressure;Samples;Min_cycle;Max_cycle;Signal;HPM_P1;HPM_P2
2023/10/23 00:00:14;;;;;;;14.50;4.27;;;11.60;99.90;;;;;;7287853;19;20217;-80
2023/10/23 00:02:40;;;;;;;17.30;4.50;;;11.70;99.90;;;;;;7310266;19;20193;-79
2023/10/23 00:05:06;;;;;;;17.07;4.90;;;11.80;99.90;;;;;;7289029;19;20185;-80
2023/10/23 00:07:32;;;;;;;17.23;3.90;;;11.80;99.90;;;;;;7286810;19;20178;-80
2023/10/23 00:10:04;;;;;;;13.77;4.20;;;11.80;99.90;;;;;;7288257;19;20674;-80
2023/10/23 00:12:29;;;;;;;16.93;4.13;;;11.70;99.90;;;;;;7286256;19;20189;-80
2023/10/23 00:14:58;;;;;;;15.47;4.10;;;11.60;99.90;;;;;;7288938;19;20196;-79
2023/10/23 00:17:24;;;;;;;17.37;4.27;;;11.60;99.90;;;;;;7287341;19;20964;-80
2023/10/23 00:19:49;;;;;;;15.47;4.80;;;11.60;99.90;;;;;;7287718;19;20355;-80
2023/10/23 00:22:15;;;;;;;18.70;4.70;;;11.60;99.90;;;;;;7288067;19;20193;-80
2023/10/23 00:24:41;;;;;;;14.97;4.00;;;11.70;99.90;;;;;;7297287;19;20185;-80
2023/10/23 00:27:07;;;;;;;20.37;4.47;;;11.80;99.90;;;;;;7306871;19;20194;-80
2023/10/23 00:29:33;;;;;;;19.27;5.07;;;11.80;99.90;;;;;;7287726;19;20633;-80
2023/10/23 00:31:59;;;;;;;20.13;4.20;;;11.80;99.90;;;;;;7284680;19;20213;-79
2023/10/23 00:34:24;;;;;;;18.63;4.20;;;11.80;99.90;;;;;;7288225;19;20655;-79
2023/10/23 00:36:50;;;;;;;19.13;4.60;;;11.80;99.90;;;;;;7287270;19;20197;-80
2023/10/23 00:39:16;;;;;;;17.33;4.60;;;11.70;99.90;;;;;;7285736;19;20197;-80
2023/10/23 00:41:44;;;;;;;17.77;4.20;;;11.70;99.90;;;;;;7287549;19;20245;-80
2023/10/23 00:44:10;;;;;;;13.80;4.07;;;11.60;99.90;;;;;;7309362;19;20672;-80
2023/10/23 00:46:36;;;;;;;16.60;4.63;;;11.60;99.90;;;;;;7286423;19;20969;-79
2023/10/23 00:49:03;;;;;;;18.17;4.27;;;11.60;99.90;;;;;;7284444;19;20197;-80
2023/10/23 00:51:31;;;;;;;18.57;4.40;;;11.60;99.90;;;;;;7285601;19;20200;-80
2023/10/23 00:53:58;;;;;;;18.33;4.50;;;11.50;99.90;;;;;;7284591;19;20226;-80
2023/10/23 00:56:24;;;;;;;19.00;4.63;;;11.40;99.90;;;;;;7288219;19;20285;-80
2023/10/23 00:58:50;;;;;;;16.43;4.37;;;11.40;99.90;;;;;;7285180;19;20193;-80
2023/10/23 01:01:19;;;;;;;16.80;3.90;;;11.40;99.90;;;;;;7287095;19;20185;-79
2023/10/23 01:03:45;;;;;;;15.57;4.50;;;11.40;99.90;;;;;;7285055;19;20589;-80
2023/10/23 01:06:12;;;;;;;17.00;4.23;;;11.50;99.90;;;;;;7305363;19;20248;-79
2023/10/23 01:08:39;;;;;;;22.60;4.40;;;11.50;99.90;;;;;;7308304;19;20197;-79
2023/10/23 01:11:05;;;;;;;20.87;4.53;;;11.40;99.90;;;;;;7285209;19;20200;-79
2023/10/23 01:13:31;;;;;;;14.37;3.90;;;11.20;99.90;;;;;;7286827;19;20201;-79
2023/10/23 01:15:57;;;;;;;18.83;3.93;;;11.10;99.90;;;;;;7285796;19;20200;-80
2023/10/23 01:18:23;;;;;;;14.20;3.93;;;11.10;99.90;;;;;;7286851;19;20189;-80
2023/10/23 01:20:52;;;;;;;13.07;3.43;;;11.10;99.90;;;;;;7294305;19;20196;-79
2023/10/23 01:23:23;;;;;;;22.17;4.43;;;11.10;99.90;;;;;;7288044;19;20534;-80
2023/10/23 01:25:49;;;;;;;18.07;4.10;;;11.00;99.90;;;;;;7285160;19;20185;-80
2023/10/23 01:28:17;;;;;;;14.57;4.07;;;11.00;99.90;;;;;;7288256;19;20189;-80
2023/10/23 01:30:45;;;;;;;19.10;4.07;;;10.90;99.90;;;;;;7285692;19;20201;-80
2023/10/23 01:33:11;;;;;;;16.17;3.67;;;10.90;99.90;;;;;;7306170;19;20223;-80
2023/10/23 01:35:37;;;;;;;19.57;4.03;;;10.90;99.90;;;;;;7286750;19;20185;-80
2023/10/23 01:38:03;;;;;;;17.03;4.13;;;10.80;99.90;;;;;;7285714;19;20196;-79
2023/10/23 01:40:29;;;;;;;16.53;3.80;;;10.80;99.90;;;;;;7286513;19;20216;-79
2023/10/23 01:42:55;;;;;;;19.33;4.03;;;10.80;99.90;;;;;;7284956;19;20193;-80
2023/10/23 01:45:21;;;;;;;18.90;4.00;;;10.90;99.90;;;;;;7283924;19;20196;-79
2023/10/23 01:47:49;;;;;;;22.60;4.57;;;11.00;99.90;;;;;;7282935;19;20208;-80
2023/10/23 01:50:17;;;;;;;16.13;3.93;;;10.90;99.90;;;;;;7285105;19;20751;-80
2023/10/23 01:52:46;;;;;;;19.60;4.77;;;10.90;99.90;;;;;;7287610;19;20191;-80
2023/10/23 01:55:12;;;;;;;19.07;3.93;;;10.90;99.90;;;;;;7293800;19;20210;-79
2023/10/23 01:57:38;;;;;;;19.33;3.90;;;10.80;99.90;;;;;;7305977;19;20198;-79
2023/10/23 02:00:06;;;;;;;18.70;4.37;;;10.80;99.90;;;;;;7284127;19;20290;-79
2023/10/23 02:02:41;;;;;;;21.53;4.20;;;10.80;99.90;;;;;;7279374;19;20196;-79
2023/10/23 02:05:07;;;;;;;18.43;3.87;;;10.90;99.90;;;;;;7300804;19;20200;-80
2023/10/23 02:07:34;;;;;;;12.97;3.70;;;10.90;99.90;;;;;;7285257;19;20193;-81
2023/10/23 02:10:00;;;;;;;13.43;3.70;;;10.90;99.90;;;;;;7284266;19;20268;-79
2023/10/23 02:12:26;;;;;;;20.43;4.80;;;10.90;99.90;;;;;;7281919;19;20602;-79
2023/10/23 02:14:57;;;;;;;16.13;4.23;;;10.80;99.90;;;;;;7284513;19;20259;-79
2023/10/23 02:17:23;;;;;;;15.90;3.47;;;10.80;99.90;;;;;;7285138;19;20484;-79
2023/10/23 02:19:49;;;;;;;17.07;3.50;;;10.70;99.90;;;;;;7282418;19;20189;-79
2023/10/23 02:22:18;;;;;;;11.00;3.23;;;10.70;99.90;;;;;;7284259;19;20188;-79
2023/10/23 02:24:45;;;;;;;15.87;4.30;;;10.80;99.90;;;;;;7284163;19;20644;-79
2023/10/23 02:27:11;;;;;;;13.00;3.57;;;10.80;99.90;;;;;;7307267;19;20209;-79
2023/10/23 02:29:40;;;;;;;16.03;3.97;;;10.90;99.90;;;;;;7301082;19;20180;-79
2023/10/23 02:32:07;;;;;;;14.93;3.77;;;10.90;99.90;;;;;;7283970;19;20237;-80
2023/10/23 02:34:36;;;;;;;17.07;3.30;;;11.00;99.90;;;;;;7287397;19;20227;-79
2023/10/23 02:37:03;;;;;;;18.90;3.47;;;10.90;99.90;;;;;;7293714;19;20180;-79
2023/10/23 02:39:29;;;;;;;17.97;3.83;;;10.80;99.90;;;;;;7297228;19;20198;-78
2023/10/23 02:41:56;;;;;;;16.67;4.37;;;10.80;99.90;;;;;;7297447;19;20191;-80
2023/10/23 02:44:23;;;;;;;20.33;3.93;;;10.80;99.90;;;;;;7297864;19;20189;-80
2023/10/23 02:46:48;;;;;;;19.00;3.83;;;10.80;99.90;;;;;;7295199;19;20297;-79
2023/10/23 02:49:14;;;;;;;16.07;3.97;;;10.80;99.90;;;;;;7292660;19;20188;-80
2023/10/23 02:51:40;;;;;;;13.33;3.40;;;10.80;99.90;;;;;;7304583;19;20656;-79
2023/10/23 02:54:06;;;;;;;17.17;3.73;;;10.90;99.90;;;;;;7285546;19;20205;-79
2023/10/23 02:56:33;;;;;;;18.67;3.60;;;10.80;99.90;;;;;;7284404;19;20190;-80
2023/10/23 02:58:59;;;;;;;16.63;3.40;;;10.80;99.90;;;;;;7284206;19;20706;-79
2023/10/23 03:01:25;;;;;;;13.20;3.07;;;10.80;99.90;;;;;;7281659;19;20188;-79
2023/10/23 03:03:53;;;;;;;11.13;3.23;;;10.70;99.90;;;;;;7279940;19;20339;-80
2023/10/23 03:06:20;;;;;;;14.37;3.40;;;10.60;99.90;;;;;;7282240;19;20224;-80
2023/10/23 03:08:46;;;;;;;13.50;3.77;;;10.60;99.90;;;;;;7279007;19;20188;-80
2023/10/23 03:11:14;;;;;;;13.93;3.10;;;10.60;99.90;;;;;;7288405;19;20298;-79
2023/10/23 03:13:41;;;;;;;19.90;3.70;;;10.60;99.90;;;;;;7304543;19;20183;-80
2023/10/23 03:16:07;;;;;;;20.13;4.17;;;10.60;99.90;;;;;;7281721;19;20214;-80
2023/10/23 03:18:33;;;;;;;14.47;3.40;;;10.50;99.90;;;;;;7280984;19;20805;-80
2023/10/23 03:21:00;;;;;;;16.53;3.10;;;10.40;99.90;;;;;;7282872;19;20252;-80
2023/10/23 03:23:32;;;;;;;15.77;3.60;;;10.40;99.90;;;;;;7281789;19;20204;-79
2023/10/23 03:25:59;;;;;;;14.13;3.37;;;10.30;99.90;;;;;;7281510;19;20204;-80
2023/10/23 03:28:28;;;;;;;15.63;3.50;;;10.20;99.90;;;;;;7282980;19;20247;-80
2023/10/23 03:30:54;;;;;;;14.73;3.50;;;10.20;99.90;;;;;;7282299;19;20521;-80
2023/10/23 03:33:20;;;;;;;16.37;3.20;;;10.10;99.90;;;;;;7288330;19;20652;-80
2023/10/23 03:35:47;;;;;;;18.17;3.87;;;10.10;99.90;;;;;;7288187;19;20186;-79
2023/10/23 03:38:16;;;;;;;18.03;3.70;;;10.20;99.90;;;;;;7286572;19;20181;-79
2023/10/23 03:40:56;;;;;;;15.03;3.90;;;10.20;99.90;;;;;;7287338;19;20195;-79
2023/10/23 03:43:23;;;;;;;17.77;3.83;;;10.20;99.90;;;;;;7287794;19;20187;-80
2023/10/23 03:45:52;;;;;;;22.70;4.07;;;10.30;99.90;;;;;;7288737;19;20201;-80
2023/10/23 03:48:20;;;;;;;16.17;4.17;;;10.30;99.90;;;;;;7286911;19;20308;-80
2023/10/23 03:50:46;;;;;;;17.13;4.13;;;10.40;99.90;;;;;;7287109;19;20191;-79
2023/10/23 03:53:12;;;;;;;17.40;4.20;;;10.40;99.90;;;;;;7296867;19;20588;-80
2023/10/23 03:55:38;;;;;;;15.33;4.17;;;10.50;99.90;;;;;;7310560;19;20711;-80
2023/10/23 03:58:04;;;;;;;14.37;4.17;;;10.50;99.90;;;;;;7289413;19;20248;-79
2023/10/23 04:00:30;;;;;;;15.60;3.90;;;10.50;99.90;;;;;;7290450;19;20548;-79
2023/10/23 04:02:56;;;;;;;21.83;4.17;;;10.50;99.90;;;;;;7289416;19;20197;-79
2023/10/23 04:05:22;;;;;;;18.40;3.80;;;10.50;99.90;;;;;;7287567;19;20682;-79
2023/10/23 04:07:48;;;;;;;21.00;4.10;;;10.60;99.90;;;;;;7288831;19;20196;-79
2023/10/23 04:10:14;;;;;;;18.67;4.00;;;10.40;99.90;;;;;;7288747;19;20667;-80
2023/10/23 04:12:40;;;;;;;16.90;4.20;;;10.40;99.90;;;;;;7309536;19;20194;-80
2023/10/23 04:15:07;;;;;;;19.53;4.90;;;10.30;99.90;;;;;;7290510;19;20210;-81
2023/10/23 04:17:33;;;;;;;21.90;4.97;;;10.20;99.90;;;;;;7288975;19;20181;-79
2023/10/23 04:19:59;;;;;;;17.47;4.20;;;10.00;99.90;;;;;;7288777;19;20195;-79
2023/10/23 04:22:25;;;;;;;19.73;5.73;;;10.00;99.90;;;;;;7294836;19;20189;-79
2023/10/23 04:24:53;;;;;;;20.87;5.50;;;9.90;99.90;;;;;;7296083;19;20181;-80
2023/10/23 04:27:20;;;;;;;19.90;4.80;;;9.80;99.90;;;;;;7308933;19;20191;-79
2023/10/23 04:29:46;;;;;;;19.50;4.57;;;9.90;99.90;;;;;;7293012;19;20651;-80
2023/10/23 04:32:12;;;;;;;17.10;4.63;;;9.80;99.90;;;;;;7303189;19;20202;-79
2023/10/23 04:34:37;;;;;;;21.43;4.83;;;9.90;99.90;;;;;;7303598;19;20192;-79
2023/10/23 04:37:03;;;;;;;13.37;4.97;;;10.00;99.90;;;;;;7287546;19;20199;-80
2023/10/23 04:39:29;;;;;;;17.63;5.07;;;9.90;99.90;;;;;;7289262;19;20195;-81
2023/10/23 04:41:55;;;;;;;18.33;5.20;;;9.80;99.90;;;;;;7288166;19;20227;-79
2023/10/23 04:44:21;;;;;;;22.57;5.27;;;9.80;99.90;;;;;;7285032;19;20191;-80
2023/10/23 04:46:46;;;;;;;21.93;5.67;;;9.90;99.90;;;;;;7287950;19;20256;-79
2023/10/23 04:49:12;;;;;;;19.90;5.20;;;9.90;99.90;;;;;;7295844;19;20650;-79
2023/10/23 04:51:38;;;;;;;19.67;5.00;;;10.00;99.90;;;;;;7306747;19;20198;-79
2023/10/23 04:54:04;;;;;;;20.47;5.50;;;10.00;99.90;;;;;;7288731;19;20621;-81
2023/10/23 04:56:30;;;;;;;14.87;4.80;;;10.10;99.90;;;;;;7287800;19;20189;-81
2023/10/23 04:58:56;;;;;;;15.60;4.27;;;10.00;99.90;;;;;;7287468;19;20261;-80
2023/10/23 05:01:23;;;;;;;16.97;5.10;;;9.90;99.90;;;;;;7287161;19;20874;-81
2023/10/23 05:03:49;;;;;;;16.77;5.20;;;10.00;99.90;;;;;;7289276;19;20200;-80
2023/10/23 05:06:15;;;;;;;23.17;5.30;;;10.10;99.90;;;;;;7287526;19;20307;-80
2023/10/23 05:08:40;;;;;;;22.10;5.37;;;10.20;99.90;;;;;;7310850;19;20251;-79
2023/10/23 05:11:10;;;;;;;20.83;5.17;;;10.20;99.90;;;;;;7289105;19;20215;-78
2023/10/23 05:13:36;;;;;;;23.17;5.97;;;10.10;99.90;;;;;;7288622;19;20284;-77
2023/10/23 05:16:06;;;;;;;19.53;5.47;;;10.10;99.90;;;;;;7293934;19;20209;-82
2023/10/23 05:18:33;;;;;;;21.20;5.90;;;10.10;99.90;;;;;;7292217;19;20240;-80
2023/10/23 05:21:04;;;;;;;19.67;5.53;;;10.10;99.90;;;;;;7290718;19;20193;-82
2023/10/23 05:23:31;;;;;;;18.40;5.27;;;10.10;99.90;;;;;;7287317;19;20194;-82
2023/10/23 05:25:57;;;;;;;19.27;5.40;;;10.10;99.90;;;;;;7288708;19;20225;-81
2023/10/23 05:28:23;;;;;;;20.50;5.53;;;10.00;99.90;;;;;;7289963;19;20191;-81
2023/10/23 05:30:51;;;;;;;18.90;5.97;;;10.00;99.90;;;;;;7292763;19;20208;-81
2023/10/23 05:33:17;;;;;;;16.23;5.17;;;9.90;99.90;;;;;;7291626;19;20190;-80
2023/10/23 05:36:05;;;;;;;16.33;5.37;;;10.00;99.90;;;;;;7288304;19;20183;-83
2023/10/23 05:38:32;;;;;;;22.83;5.80;;;9.80;99.90;;;;;;7287556;19;20336;-81
2023/10/23 05:40:59;;;;;;;16.77;5.60;;;9.80;99.90;;;;;;7285765;19;20182;-81
2023/10/23 05:43:26;;;;;;;19.20;5.70;;;9.90;99.90;;;;;;7286478;19;20187;-82
2023/10/23 05:45:55;;;;;;;20.53;5.77;;;9.80;99.90;;;;;;7288658;19;20190;-83
2023/10/23 05:48:22;;;;;;;19.30;6.00;;;9.90;99.90;;;;;;7287594;19;20204;-83
2023/10/23 05:51:02;;;;;;;19.97;6.00;;;9.90;99.90;;;;;;7285443;19;20257;-82
2023/10/23 05:53:28;;;;;;;18.37;5.07;;;9.80;99.90;;;;;;7284500;19;20207;-82
2023/10/23 05:55:54;;;;;;;20.60;5.37;;;9.80;99.90;;;;;;7285192;19;20538;-81
2023/10/23 05:58:20;;;;;;;19.33;5.83;;;9.70;99.90;;;;;;7283040;19;20187;-82
2023/10/23 06:00:48;;;;;;;18.23;5.27;;;9.70;99.90;;;;;;7285038;19;20189;-81
2023/10/23 06:03:13;;;;;;;19.03;5.07;;;9.60;99.90;;;;;;7286251;19;20181;-81
2023/10/23 06:05:41;;;;;;;17.90;5.33;;;9.60;99.90;;;;;;7307530;19;20182;-82
2023/10/23 06:08:08;;;;;;;17.50;5.63;;;9.50;99.90;;;;;;7286071;19;20182;-83
2023/10/23 06:10:43;;;;;;;20.40;5.67;;;9.40;99.90;;;;;;7287392;19;20202;-82
2023/10/23 06:13:09;;;;;;;17.03;4.80;;;9.40;99.90;;;;;;7287394;19;20253;-82
2023/10/23 06:15:35;;;;;;;17.47;5.50;;;9.30;99.90;;;;;;7284725;19;20228;-82
2023/10/23 06:18:02;;;;;;;16.20;5.43;;;9.30;99.90;;;;;;7285951;19;20322;-82
2023/10/23 06:20:28;;;;;;;16.03;5.10;;;9.30;99.90;;;;;;7286695;19;20626;-82
2023/10/23 06:22:54;;;;;;;15.87;5.20;;;9.20;99.90;;;;;;7284547;19;20664;-83
2023/10/23 06:25:20;;;;;;;19.27;5.47;;;9.10;99.90;;;;;;7284676;19;20185;-82
2023/10/23 06:27:45;;;;;;;14.80;5.27;;;9.10;99.90;;;;;;7286152;19;20244;-82
2023/10/23 06:30:12;;;;;;;18.60;5.23;;;9.10;99.90;;;;;;7308180;19;20241;-83
2023/10/23 06:32:37;;;;;;;21.93;5.47;;;9.10;99.90;;;;;;7284125;19;20726;-83
2023/10/23 06:35:04;;;;;;;20.27;5.30;;;9.20;99.90;;;;;;7286605;19;20202;-82
2023/10/23 06:37:33;;;;;;;17.07;4.57;;;9.20;99.90;;;;;;7286337;19;20231;-83
2023/10/23 06:39:58;;;;;;;14.47;4.83;;;9.20;99.90;;;;;;7284096;19;20193;-83
2023/10/23 06:42:27;;;;;;;16.07;5.10;;;9.30;99.90;;;;;;7283559;19;20249;-83
2023/10/23 06:44:54;;;;;;;16.87;5.33;;;9.30;99.90;;;;;;7284293;19;20193;-83
2023/10/23 06:47:21;;;;;;;16.80;5.57;;;9.40;99.90;;;;;;7284394;19;20190;-83
2023/10/23 06:49:46;;;;;;;19.33;5.40;;;9.50;99.90;;;;;;7284507;19;20203;-83
2023/10/23 06:52:13;;;;;;;18.33;5.17;;;9.50;99.90;;;;;;7295340;19;20686;-82
2023/10/23 06:54:39;;;;;;;16.13;5.50;;;9.50;99.90;;;;;;7306766;19;20266;-83
2023/10/23 06:57:06;;;;;;;19.50;5.30;;;9.50;99.90;;;;;;7282591;19;20199;-82
2023/10/23 06:59:36;;;;;;;19.03;4.77;;;9.60;99.90;;;;;;7282965;19;20232;-83
2023/10/23 07:02:02;;;;;;;13.00;5.07;;;9.60;99.90;;;;;;7282924;19;20224;-83
2023/10/23 07:04:28;;;;;;;17.90;4.97;;;9.70;99.90;;;;;;7284103;19;20196;-82
2023/10/23 07:06:55;;;;;;;12.37;4.50;;;9.70;99.90;;;;;;7284212;19;20708;-82
2023/10/23 07:09:21;;;;;;;11.30;4.43;;;9.60;99.90;;;;;;7289995;19;20620;-82
2023/10/23 07:11:48;;;;;;;16.30;4.60;;;9.70;99.90;;;;;;7290494;19;20656;-83
2023/10/23 07:14:14;;;;;;;15.60;4.20;;;9.80;99.90;;;;;;7290625;19;20538;-82
2023/10/23 07:16:40;;;;;;;13.23;4.67;;;9.80;99.90;;;;;;7313094;19;20188;-83
2023/10/23 07:19:06;;;;;;;17.73;4.53;;;9.80;99.90;;;;;;7292486;19;20189;-83
2023/10/23 07:21:32;;;;;;;13.23;4.27;;;9.90;99.90;;;;;;7291824;19;20204;-83
2023/10/23 07:23:58;;;;;;;11.73;3.90;;;10.00;99.90;;;;;;7291190;19;20198;-83
2023/10/23 07:26:24;;;;;;;13.27;4.90;;;10.00;99.90;;;;;;7290708;19;20194;-82
2023/10/23 07:28:50;;;;;;;13.30;4.23;;;10.10;99.90;;;;;;7310225;19;20198;-82
2023/10/23 07:31:16;;;;;;;15.90;4.17;;;10.10;99.90;;;;;;7315950;19;20198;-82
2023/10/23 07:33:43;;;;;;;12.67;4.00;;;10.20;99.90;;;;;;7318501;19;20193;-83
2023/10/23 07:36:10;;;;;;;14.50;3.80;;;10.20;99.90;;;;;;7319743;19;20294;-83
2023/10/23 07:38:40;;;;;;;18.20;4.00;;;10.40;99.90;;;;;;7297454;19;20213;-83
2023/10/23 07:41:06;;;;;;;12.57;3.80;;;10.40;99.90;;;;;;7291252;19;20202;-83
2023/10/23 07:43:32;;;;;;;15.03;3.97;;;10.40;99.90;;;;;;7291105;19;20742;-82
2023/10/23 07:46:03;;;;;;;11.20;4.00;;;10.40;99.90;;;;;;7290148;19;20191;-82
2023/10/23 07:48:29;;;;;;;11.50;3.90;;;10.40;99.90;;;;;;7289950;19;20196;-82
2023/10/23 07:50:58;;;;;;;12.80;4.13;;;10.50;99.90;;;;;;7291265;19;20209;-83
2023/10/23 07:53:24;;;;;;;14.83;3.77;;;10.50;99.90;;;;;;7289694;19;20275;-82
2023/10/23 07:55:49;;;;;;;13.60;4.03;;;10.60;99.90;;;;;;7290334;19;20192;-82
2023/10/23 07:58:15;;;;;;;10.63;3.57;;;10.60;99.90;;;;;;7288781;19;20611;-82
2023/10/23 08:00:41;;;;;;;13.50;3.77;;;10.70;99.90;;;;;;7313389;19;20778;-83
2023/10/23 08:03:07;;;;;;;14.70;3.40;;;10.80;99.90;;;;;;7289922;19;20189;-82
2023/10/23 08:05:33;;;;;;;10.90;3.40;;;11.00;99.90;;;;;;7288710;19;20190;-82
2023/10/23 08:07:59;;;;;;;9.93;3.23;;;11.10;99.90;;;;;;7288435;19;20189;-82
2023/10/23 08:10:24;;;;;;;10.47;3.17;;;11.20;99.90;;;;;;7288285;19;20529;-83
2023/10/23 08:12:50;;;;;;;11.67;3.10;;;11.40;99.90;;;;;;7290252;19;20204;-83
2023/10/23 08:15:16;;;;;;;15.30;3.97;;;11.60;99.90;;;;;;7289702;19;20188;-83
2023/10/23 08:17:42;;;;;;;12.73;3.27;;;11.80;99.90;;;;;;7302609;19;20281;-81
2023/10/23 08:20:09;;;;;;;11.70;3.50;;;12.10;99.90;;;;;;7303149;19;20189;-83
2023/10/23 08:22:35;;;;;;;12.13;3.40;;;12.20;99.90;;;;;;7287963;19;20284;-83
2023/10/23 08:25:00;;;;;;;10.43;2.73;;;12.50;99.90;;;;;;7286278;19;20205;-83
2023/10/23 08:27:26;;;;;;;13.83;3.27;;;12.60;99.90;;;;;;7289985;19;20193;-83
2023/10/23 08:29:52;;;;;;;12.30;3.00;;;12.80;99.90;;;;;;7290889;19;20981;-82
2023/10/23 08:32:18;;;;;;;11.57;3.40;;;12.90;99.90;;;;;;7288144;19;20913;-83
2023/10/23 08:34:44;;;;;;;11.73;3.13;;;13.10;99.90;;;;;;7289102;19;20641;-82
2023/10/23 08:37:10;;;;;;;12.30;2.87;;;13.40;99.90;;;;;;7310824;19;20198;-83
2023/10/23 08:39:37;;;;;;;13.13;3.20;;;13.60;99.90;;;;;;7287796;19;20186;-83
2023/10/23 08:42:03;;;;;;;17.47;3.10;;;13.80;99.90;;;;;;7289874;19;20187;-83
2023/10/23 08:44:29;;;;;;;13.43;3.00;;;14.00;99.90;;;;;;7288458;19;20191;-81
2023/10/23 08:46:55;;;;;;;12.53;3.63;;;14.40;99.90;;;;;;7288855;19;20192;-82
2023/10/23 08:49:21;;;;;;;10.07;2.77;;;14.60;99.90;;;;;;7284607;19;20192;-82
2023/10/23 08:51:51;;;;;;;10.97;3.00;;;14.80;99.90;;;;;;7284630;19;20542;-82
2023/10/23 08:54:18;;;;;;;10.37;2.87;;;15.10;99.90;;;;;;7286463;19;20291;-82
2023/10/23 08:56:49;;;;;;;11.93;2.97;;;15.30;99.90;;;;;;7288346;19;20189;-81
2023/10/23 08:59:15;;;;;;;13.80;2.77;;;15.30;99.90;;;;;;7287067;19;20195;-81
2023/10/23 09:01:41;;;;;;;14.07;2.93;;;15.10;99.90;;;;;;7310404;19;20292;-82
2023/10/23 09:04:10;;;;;;;13.70;2.93;;;15.00;99.90;;;;;;7287959;19;20630;-82
2023/10/23 09:06:36;;;;;;;12.37;3.40;;;15.10;99.90;;;;;;7288053;19;20188;-82
2023/10/23 09:09:03;;;;;;;11.70;3.07;;;15.10;99.90;;;;;;7286561;19;25289;-82
2023/10/23 09:11:46;;;;;;;14.87;3.00;;;14.80;99.90;;;;;;7286887;19;20213;-82
2023/10/23 09:14:23;;;;;;;13.40;3.00;;;14.80;99.90;;;;;;7282193;19;20199;-81
2023/10/23 09:16:51;;;;;;;14.00;3.33;;;14.70;99.90;;;;;;7287999;19;20753;-82
2023/10/23 09:19:38;;;;;;;14.10;3.93;;;14.50;99.90;;;;;;7287282;19;20575;-82
2023/10/23 09:22:06;;;;;;;12.67;3.03;;;14.60;99.90;;;;;;7287768;19;20225;-81
2023/10/23 09:24:31;;;;;;;11.70;2.73;;;14.50;99.90;;;;;;7286158;19;20376;-82
2023/10/23 09:26:57;;;;;;;13.73;3.30;;;14.40;99.90;;;;;;7288418;19;20205;-81
2023/10/23 09:29:24;;;;;;;14.00;3.10;;;14.40;99.90;;;;;;7285120;19;20192;-81
2023/10/23 09:31:55;;;;;;;17.33;3.03;;;14.20;99.90;;;;;;7284370;19;20581;-82
2023/10/23 09:34:21;;;;;;;12.00;2.80;;;14.20;99.90;;;;;;7288421;19;20197;-82
2023/10/23 09:36:51;;;;;;;15.37;3.00;;;14.20;99.90;;;;;;7285771;19;20229;-82
2023/10/23 09:39:18;;;;;;;15.50;4.50;;;14.30;99.90;;;;;;7290274;19;20184;-82
2023/10/23 09:41:47;;;;;;;10.77;3.57;;;14.40;99.90;;;;;;7286918;19;20198;-81
2023/10/23 09:44:14;;;;;;;11.37;2.90;;;14.30;99.90;;;;;;7297032;19;20186;-82
2023/10/23 09:46:42;;;;;;;9.53;2.63;;;14.40;99.90;;;;;;7310173;19;20245;-82
2023/10/23 09:49:09;;;;;;;14.83;3.13;;;14.30;99.90;;;;;;7287922;19;20191;-82
2023/10/23 09:51:39;;;;;;;12.47;2.80;;;14.30;99.90;;;;;;7285334;19;20199;-82
2023/10/23 09:54:17;;;;;;;15.13;3.33;;;14.40;99.90;;;;;;7285507;19;20192;-83
2023/10/23 09:56:51;;;;;;;15.50;3.23;;;14.40;99.90;;;;;;7276194;19;20704;-82
2023/10/23 09:59:18;;;;;;;16.77;3.53;;;14.40;99.90;;;;;;7285832;19;20603;-82
2023/10/23 10:01:48;;;;;;;13.03;3.57;;;14.30;99.90;;;;;;7288567;19;20669;-82
2023/10/23 10:04:23;;;;;;;11.83;3.30;;;14.40;99.90;;;;;;7287885;19;20197;-82
2023/10/23 10:06:54;;;;;;;12.60;2.93;;;14.50;99.90;;;;;;7288707;19;20195;-82
2023/10/23 10:09:23;;;;;;;14.10;3.40;;;14.70;99.90;;;;;;7286909;19;20200;-82
2023/10/23 10:11:50;;;;;;;15.47;3.67;;;14.80;99.90;;;;;;7285093;19;20327;-82
2023/10/23 10:14:17;;;;;;;13.50;3.13;;;14.70;99.90;;;;;;7286979;19;20206;-82
2023/10/23 10:16:44;;;;;;;13.23;3.13;;;14.80;99.90;;;;;;7299273;19;20198;-81
2023/10/23 10:19:12;;;;;;;15.23;3.10;;;14.80;99.90;;;;;;7308889;19;20193;-82
2023/10/23 10:22:24;;;;;;;11.37;2.73;;;15.00;99.90;;;;;;7288009;19;20181;-83
2023/10/23 10:24:50;;;;;;;14.47;2.80;;;15.00;99.90;;;;;;7083298;19;2004580;-82
2023/10/23 10:27:17;;;;;;;10.37;3.00;;;15.10;99.90;;;;;;7286655;19;20654;-82
2023/10/23 10:29:43;;;;;;;11.83;2.77;;;15.10;99.90;;;;;;7299977;19;20661;-81
2023/10/23 10:32:10;;;;;;;11.67;2.80;;;15.20;99.90;;;;;;7303954;19;20205;-83
2023/10/23 10:34:38;;;;;;;14.20;2.83;;;15.20;99.90;;;;;;7287386;19;20186;-81
2023/10/23 10:37:09;;;;;;;12.73;2.90;;;15.20;99.90;;;;;;7283798;19;20178;-82
2023/10/23 10:39:48;;;;;;;10.23;2.67;;;15.30;99.90;;;;;;7283502;19;20277;-81
2023/10/23 10:42:17;;;;;;;9.87;2.57;;;15.20;99.90;;;;;;7263859;19;20225;-82
2023/10/23 10:44:56;;;;;;;14.03;2.53;;;15.20;99.90;;;;;;7300002;19;20290;-80
2023/10/23 10:47:43;;;;;;;11.27;2.40;;;15.20;99.90;;;;;;7303500;19;20730;-82
2023/10/23 10:50:12;;;;;;;11.23;2.23;;;15.40;99.90;;;;;;7291365;19;20200;-82
2023/10/23 10:52:43;;;;;;;11.23;2.40;;;15.40;99.90;;;;;;7283971;19;20576;-82
2023/10/23 10:55:11;;;;;;;13.97;2.70;;;15.30;99.90;;;;;;7285773;19;20184;-82
2023/10/23 10:57:41;;;;;;;10.30;2.13;;;15.20;99.90;;;;;;7282114;19;20208;-82
2023/10/23 11:00:08;;;;;;;10.27;2.20;;;15.20;99.90;;;;;;7285262;19;20192;-82
2023/10/23 11:02:33;;;;;;;7.40;1.70;;;15.30;99.90;;;;;;7283593;19;20177;-81
2023/10/23 11:05:06;;;;;;;12.00;1.80;;;15.20;99.90;;;;;;7282716;19;20196;-82
2023/10/23 11:07:32;;;;;;;12.37;2.50;;;15.20;99.90;;;;;;7284075;19;20304;-82
2023/10/23 11:09:57;;;;;;;11.73;2.37;;;15.20;99.90;;;;;;7282521;19;20200;-83
2023/10/23 11:12:24;;;;;;;13.13;2.17;;;15.30;99.90;;;;;;7283061;19;20196;-82
2023/10/23 11:14:50;;;;;;;12.10;2.53;;;15.30;99.90;;;;;;7284850;19;20192;-82
2023/10/23 11:17:16;;;;;;;11.03;2.37;;;15.30;99.90;;;;;;7280819;19;20259;-82
2023/10/23 11:19:42;;;;;;;9.50;1.97;;;15.30;99.90;;;;;;7306290;19;20196;-81
2023/10/23 11:22:10;;;;;;;11.80;2.50;;;15.30;99.90;;;;;;7285182;19;20564;-82
2023/10/23 11:24:38;;;;;;;12.77;2.20;;;15.30;99.90;;;;;;7284111;19;20194;-82
2023/10/23 11:27:07;;;;;;;13.93;2.00;;;15.30;99.90;;;;;;7286924;19;20199;-82
2023/10/23 11:29:42;;;;;;;12.27;2.20;;;15.40;99.90;;;;;;7288394;19;20668;-82
2023/10/23 11:32:08;;;;;;;9.80;1.90;;;15.40;99.90;;;;;;7286828;19;20276;-82
2023/10/23 11:34:37;;;;;;;10.70;1.87;;;15.20;99.90;;;;;;7284208;19;20195;-81
2023/10/23 11:37:08;;;;;;;15.20;2.10;;;15.10;99.90;;;;;;7283251;19;20188;-82
2023/10/23 11:39:35;;;;;;;9.80;1.90;;;15.10;99.90;;;;;;7282766;19;20198;-82
2023/10/23 11:42:02;;;;;;;9.17;2.07;;;15.20;99.90;;;;;;7282593;19;20188;-83
2023/10/23 11:44:31;;;;;;;7.80;1.90;;;15.40;99.90;;;;;;7282497;19;20191;-82
2023/10/23 11:46:58;;;;;;;12.60;2.20;;;15.50;99.90;;;;;;7283126;19;20200;-82
2023/10/23 11:49:24;;;;;;;8.37;1.77;;;15.50;99.90;;;;;;7285719;19;20233;-83
2023/10/23 11:51:57;;;;;;;10.00;1.90;;;15.60;99.90;;;;;;7280950;19;20286;-83
2023/10/23 11:54:24;;;;;;;11.43;1.80;;;15.60;99.90;;;;;;7293298;19;20252;-83
2023/10/23 11:56:50;;;;;;;10.27;1.70;;;15.60;99.90;;;;;;7290602;19;20196;-82
2023/10/23 11:59:21;;;;;;;8.40;2.13;;;15.60;99.90;;;;;;7289123;19;20196;-82
2023/10/23 12:01:49;;;;;;;6.53;2.10;;;15.60;99.90;;;;;;7296883;19;20648;-81
2023/10/23 12:04:16;;;;;;;8.93;1.77;;;15.70;99.90;;;;;;7306788;19;20233;-83
2023/10/23 12:06:44;;;;;;;10.10;2.10;;;15.60;99.90;;;;;;7317477;19;20257;-81
2023/10/23 12:09:10;;;;;;;7.93;1.60;;;15.70;99.90;;;;;;7327606;19;20205;-82
2023/10/23 12:11:36;;;;;;;12.47;1.70;;;15.60;99.90;;;;;;7310483;19;20228;-82
2023/10/23 12:14:03;;;;;;;11.17;2.30;;;15.70;99.90;;;;;;7308369;19;20663;-82
2023/10/23 12:16:33;;;;;;;8.27;1.97;;;15.70;99.90;;;;;;7303817;19;20190;-82
2023/10/23 12:18:59;;;;;;;8.50;1.77;;;15.60;99.90;;;;;;7304112;19;20188;-82
2023/10/23 12:21:26;;;;;;;10.40;2.20;;;15.50;99.90;;;;;;7307349;19;20189;-82
2023/10/23 12:23:52;;;;;;;9.07;1.70;;;15.50;99.90;;;;;;7305354;19;20181;-82
2023/10/23 12:26:18;;;;;;;8.50;1.40;;;15.40;99.90;;;;;;7300822;19;20214;-82
2023/10/23 12:28:44;;;;;;;7.33;1.70;;;15.50;99.90;;;;;;7302409;19;20206;-81
2023/10/23 12:31:10;;;;;;;9.03;1.90;;;15.50;99.90;;;;;;7311235;19;20204;-83
2023/10/23 12:33:36;;;;;;;9.80;1.67;;;15.60;99.90;;;;;;7289121;19;20185;-82
2023/10/23 12:36:04;;;;;;;9.97;2.00;;;15.60;99.90;;;;;;7288725;19;20551;-83
2023/10/23 12:38:36;;;;;;;10.10;2.33;;;15.70;99.90;;;;;;7288868;19;20188;-82